Terminal Aerodrome Forecast
Issued by NWS

Home | Current Version | Previous Version | Text Only | Print | Product List | Glossary On
Versions: 1 2 3 4 5 6 7 8 9 10 11 12 13 14 15 16 17
000
FTUS43 KBIS 221727
TAFJMS
TAF
KJMS 221727Z 2218/2318 15020G30KT 5SM -SN SCT020 BKN050
     FM221900 15021G31KT P6SM SCT030 BKN060
     FM230300 16014KT P6SM BKN200
     FM231100 16009KT P6SM BKN150=

USA.gov is the U.S. government's official web portal to all federal, state and local government web resources and services.